Time;durP1;ratioP1;P1;durP2;ratioP2;P2;SDS_P1;SDS_P2;PMS_P1;PMS_P2;Temp;Humidity;BMP_temperature;BMP_pressure;BME280_temperature;BME280_humidity;BME280_pressure;Samples;Min_cycle;Max_cycle;Signal;HPM_P1;HPM_P2
2022/07/04 00:01:01;;;;;;;2.95;0.77;;;;;;;17.65;100.00;97793.69;5037149;28;20137;-67
2022/07/04 00:03:28;;;;;;;1.40;0.50;;;;;;;17.59;100.00;97787.06;5041912;28;20053;-66
2022/07/04 00:05:56;;;;;;;4.35;0.77;;;;;;;17.52;100.00;97793.69;5038030;28;20052;-66
2022/07/04 00:08:23;;;;;;;3.95;0.80;;;;;;;17.51;100.00;97789.38;5037943;28;20143;-66
2022/07/04 00:10:51;;;;;;;3.03;0.63;;;;;;;17.41;100.00;97790.94;5040048;28;20457;-67
2022/07/04 00:13:18;;;;;;;2.35;0.65;;;;;;;17.31;100.00;97786.31;5035117;28;20489;-66
2022/07/04 00:15:45;;;;;;;3.17;0.60;;;;;;;17.28;100.00;97794.38;5040177;28;20049;-66
2022/07/04 00:18:13;;;;;;;2.72;0.70;;;;;;;17.12;100.00;97784.03;5039367;28;20041;-66
2022/07/04 00:20:40;;;;;;;2.45;0.60;;;17.70;99.90;;;17.04;100.00;97786.34;5040910;28;20453;-66
2022/07/04 00:23:07;;;;;;;1.50;0.60;;;17.60;99.90;;;16.97;100.00;97789.44;5035757;28;20488;-65
2022/07/04 00:25:34;;;;;;;2.63;0.55;;;17.60;99.90;;;16.97;100.00;97792.94;5040788;28;20141;-66
2022/07/04 00:28:01;;;;;;;3.28;0.70;;;17.50;99.90;;;16.95;100.00;97794.00;5042307;28;20475;-66
2022/07/04 00:30:28;;;;;;;4.40;0.55;;;17.50;99.90;;;17.00;100.00;97787.47;5039148;28;20176;-66
2022/07/04 00:32:55;;;;;;;1.92;0.63;;;17.40;99.90;;;16.95;100.00;97788.75;5037719;28;20072;-66
2022/07/04 00:35:22;;;;;;;3.75;0.85;;;17.40;99.90;;;16.89;100.00;97787.34;5034207;28;20080;-66
2022/07/04 00:37:49;;;;;;;3.97;0.82;;;17.30;99.90;;;16.87;100.00;97790.06;5040614;28;20050;-65
2022/07/04 00:40:16;;;;;;;1.50;0.60;;;17.30;99.90;;;16.96;100.00;97793.88;5040558;28;20140;-65
2022/07/04 00:42:43;;;;;;;1.70;0.60;;;17.30;99.90;;;16.93;100.00;97787.03;5036540;28;20213;-66
2022/07/04 00:45:10;;;;;;;3.05;0.60;;;17.30;99.90;;;16.93;100.00;97797.53;5039740;28;20041;-65
2022/07/04 00:47:37;;;;;;;3.13;0.50;;;17.30;99.90;;;16.96;100.00;97796.50;5040562;28;20499;-67
2022/07/04 00:50:05;;;;;;;2.08;0.63;;;17.30;99.90;;;16.79;100.00;97802.84;5043414;28;20136;-65
2022/07/04 00:52:32;;;;;;;7.28;0.70;;;17.30;99.90;;;16.58;100.00;97804.16;5038363;28;20129;-67
2022/07/04 00:55:00;;;;;;;16.48;0.80;;;17.10;99.90;;;16.51;100.00;97807.19;5039101;28;20067;-66
2022/07/04 00:57:27;;;;;;;4.13;0.70;;;17.00;99.90;;;16.41;100.00;97811.28;5037941;28;20077;-67
2022/07/04 00:59:54;;;;;;;3.45;0.60;;;16.90;99.90;;;16.34;100.00;97817.88;5038919;28;20092;-66
2022/07/04 01:02:21;;;;;;;2.38;0.60;;;16.90;99.90;;;16.37;100.00;97822.06;5039674;28;20136;-66
2022/07/04 01:04:48;;;;;;;5.00;0.80;;;16.80;99.90;;;16.33;100.00;97823.19;5039178;28;20140;-66
2022/07/04 01:07:16;;;;;;;3.72;0.75;;;16.80;99.90;;;16.38;100.00;97821.97;5036391;28;20045;-66
2022/07/04 01:09:44;;;;;;;3.85;0.70;;;16.80;99.90;;;16.35;100.00;97822.16;5039700;28;20144;-66
2022/07/04 01:12:11;;;;;;;1.85;0.60;;;16.70;99.90;;;16.38;100.00;97829.00;5038493;28;20080;-65
2022/07/04 01:14:38;;;;;;;3.42;0.63;;;16.80;99.90;;;16.39;100.00;97828.88;5035568;28;20045;-67
2022/07/04 01:17:06;;;;;;;4.38;0.73;;;16.80;99.90;;;16.41;100.00;97840.13;5040022;28;20154;-65
2022/07/04 01:19:33;;;;;;;4.80;0.70;;;16.80;99.90;;;16.42;100.00;97841.81;5039151;28;20054;-66
2022/07/04 01:22:06;;;;;;;1.13;0.50;;;16.90;99.90;;;16.43;100.00;97842.66;5038841;28;20140;-66
2022/07/04 01:24:33;;;;;;;4.20;0.90;;;16.80;99.90;;;16.39;100.00;97842.00;5040687;28;20127;-64
2022/07/04 01:27:00;;;;;;;3.17;0.65;;;16.80;99.90;;;16.41;100.00;97845.34;5045343;28;20065;-67
2022/07/04 01:29:27;;;;;;;4.30;0.70;;;16.80;99.90;;;16.24;100.00;97845.56;5040741;28;20049;-65
2022/07/04 01:31:54;;;;;;;3.10;0.80;;;16.70;99.90;;;16.07;100.00;97857.88;5040820;28;20049;-66
2022/07/04 01:34:21;;;;;;;2.92;1.00;;;16.70;99.90;;;15.90;100.00;97858.09;5044038;28;20136;-65
2022/07/04 01:36:48;;;;;;;4.55;0.70;;;16.60;99.90;;;15.73;100.00;97866.91;5044372;28;20136;-66
2022/07/04 01:39:15;;;;;;;1.25;0.60;;;16.40;99.90;;;15.64;100.00;97865.66;5041926;28;20056;-66
2022/07/04 01:41:42;;;;;;;3.60;0.73;;;16.20;99.90;;;15.58;100.00;97867.81;5039078;28;20602;-66
2022/07/04 01:44:09;;;;;;;3.75;1.10;;;16.20;99.90;;;15.46;100.00;97871.94;5041210;28;20144;-64
2022/07/04 01:46:36;;;;;;;5.30;0.80;;;16.10;99.90;;;15.38;100.00;97868.94;5043888;28;20770;-66
2022/07/04 01:49:03;;;;;;;1.63;0.70;;;16.00;99.90;;;15.31;100.00;97865.00;5042910;28;20617;-65
2022/07/04 01:51:30;;;;;;;2.20;0.70;;;15.90;99.90;;;15.35;100.00;97864.75;5039180;28;20211;-66
2022/07/04 01:53:57;;;;;;;1.75;0.70;;;15.90;99.90;;;15.30;100.00;97863.31;5042007;28;20103;-66
2022/07/04 01:56:24;;;;;;;2.10;0.63;;;15.80;99.90;;;15.07;100.00;97865.44;5038908;28;20500;-66
2022/07/04 01:58:51;;;;;;;2.30;0.80;;;15.80;99.90;;;14.97;100.00;97867.75;5039452;28;20088;-66
2022/07/04 02:01:30;;;;;;;1.58;0.50;;;15.70;99.90;;;14.99;100.00;97855.44;5041658;28;20141;-65
2022/07/04 02:04:02;;;;;;;1.67;0.70;;;15.70;99.90;;;14.87;100.00;97863.97;5040655;28;20049;-66
2022/07/04 02:06:30;;;;;;;3.28;0.80;;;15.60;99.90;;;15.04;100.00;97871.69;5047250;28;20049;-65
2022/07/04 02:09:16;;;;;;;2.80;0.60;;;15.60;99.90;;;14.96;100.00;97873.91;5039528;28;20155;-66
2022/07/04 02:14:33;;;;;;;2.20;0.88;;;15.50;99.90;;;14.59;100.00;97877.69;5039861;28;20055;-64
2022/07/04 02:17:01;;;;;;;2.75;0.70;;;15.40;99.90;;;14.55;100.00;97866.56;5038704;28;20128;-65
2022/07/04 02:19:29;;;;;;;2.50;0.60;;;15.30;99.90;;;14.66;100.00;97870.34;5054327;28;20140;-65
2022/07/04 02:21:56;;;;;;;1.45;0.70;;;15.20;99.90;;;14.53;100.00;97867.50;5040572;28;20164;-65
2022/07/04 02:24:23;;;;;;;3.40;0.90;;;15.10;99.90;;;14.68;100.00;97858.06;5037918;28;20049;-66
2022/07/04 02:26:50;;;;;;;2.55;0.60;;;15.10;99.90;;;14.48;100.00;97854.69;5041258;28;20128;-65
2022/07/04 02:29:17;;;;;;;3.78;0.70;;;15.10;99.90;;;14.47;100.00;97860.03;5040572;28;20136;-65
2022/07/04 02:31:44;;;;;;;2.67;0.70;;;15.00;99.90;;;14.38;100.00;97864.81;5039728;28;20118;-66
2022/07/04 02:34:12;;;;;;;3.55;0.80;;;15.00;99.90;;;14.20;100.00;97866.63;5038262;28;20132;-65
2022/07/04 02:36:39;;;;;;;2.28;0.60;;;14.90;99.90;;;14.11;100.00;97871.50;5037820;28;20063;-66
2022/07/04 02:39:06;;;;;;;1.95;0.80;;;14.70;99.90;;;14.06;100.00;97866.50;5038748;28;20045;-64
2022/07/04 02:41:34;;;;;;;3.20;0.70;;;14.60;99.90;;;14.13;100.00;97864.44;5042066;28;20095;-66
2022/07/04 02:44:01;;;;;;;2.72;0.60;;;14.60;99.90;;;14.07;100.00;97867.34;5040737;28;20076;-66
2022/07/04 02:46:28;;;;;;;4.50;0.90;;;14.60;99.90;;;14.01;100.00;97868.53;5037252;28;20059;-66
2022/07/04 02:48:55;;;;;;;2.72;0.70;;;14.60;99.90;;;14.17;100.00;97871.19;5043841;28;20073;-66
2022/07/04 02:51:22;;;;;;;3.90;0.73;;;14.70;99.90;;;14.16;100.00;97875.56;5037726;28;20132;-66
2022/07/04 02:53:50;;;;;;;1.58;0.73;;;14.70;99.90;;;14.00;100.00;97880.75;5040880;28;20048;-65
2022/07/04 02:56:17;;;;;;;1.85;0.68;;;14.60;99.90;;;13.75;100.00;97881.16;5041939;28;20466;-66
2022/07/04 02:58:44;;;;;;;1.80;0.70;;;14.50;99.90;;;13.70;100.00;97879.69;5040620;28;20099;-65
2022/07/04 03:01:12;;;;;;;6.00;0.60;;;14.30;99.90;;;13.69;100.00;97878.84;5038982;28;20042;-65
2022/07/04 03:03:40;;;;;;;2.75;0.80;;;14.30;99.90;;;13.76;100.00;97885.44;5040401;28;20133;-64
2022/07/04 03:06:08;;;;;;;1.30;0.70;;;14.30;99.90;;;13.54;100.00;97890.03;5039784;28;20060;-65
2022/07/04 03:08:36;;;;;;;1.27;0.50;;;14.20;99.90;;;13.50;100.00;97897.19;5041005;28;20148;-66
2022/07/04 03:11:04;;;;;;;4.47;0.90;;;14.20;99.90;;;13.54;100.00;97900.47;5042173;28;20221;-65
2022/07/04 03:13:32;;;;;;;6.75;1.00;;;14.10;99.90;;;13.41;100.00;97894.16;5039262;28;20172;-65
2022/07/04 03:15:59;;;;;;;5.93;0.88;;;14.10;99.90;;;13.44;100.00;97894.03;5039723;28;20165;-66
2022/07/04 03:18:26;;;;;;;4.03;0.82;;;14.00;99.90;;;13.24;100.00;97897.56;5038714;28;21687;-65
2022/07/04 03:20:53;;;;;;;1.73;0.80;;;14.00;99.90;;;13.23;100.00;97901.94;5040001;28;20159;-67
2022/07/04 03:23:20;;;;;;;2.47;0.88;;;14.00;99.90;;;13.28;100.00;97912.19;5041186;28;20080;-64
2022/07/04 03:25:47;;;;;;;3.63;0.90;;;13.80;99.90;;;13.25;100.00;97909.66;5038017;28;20088;-66
2022/07/04 03:28:14;;;;;;;5.85;1.05;;;13.80;99.90;;;13.10;100.00;97906.88;5037529;28;20171;-66
2022/07/04 03:30:42;;;;;;;3.60;1.23;;;13.70;99.90;;;13.07;100.00;97911.38;5042932;28;20093;-66
2022/07/04 03:33:09;;;;;;;2.35;0.75;;;13.70;99.90;;;13.09;100.00;97915.63;5038134;28;20427;-66
2022/07/04 03:35:36;;;;;;;2.28;0.80;;;13.70;99.90;;;13.11;100.00;97915.53;5041270;28;20125;-66
2022/07/04 03:38:03;;;;;;;3.22;0.80;;;13.80;99.90;;;13.00;100.00;97916.06;5040552;28;21801;-66
2022/07/04 03:40:31;;;;;;;4.80;0.80;;;13.70;99.90;;;13.08;100.00;97913.09;5035775;28;20098;-65
2022/07/04 03:42:58;;;;;;;1.30;0.70;;;13.70;99.90;;;13.26;100.00;97914.81;5039098;28;20107;-66
2022/07/04 03:45:25;;;;;;;1.92;0.70;;;13.70;99.90;;;13.13;100.00;97924.97;5040216;28;20065;-65
2022/07/04 03:47:52;;;;;;;2.65;0.85;;;13.80;99.90;;;13.00;100.00;97921.28;5052364;28;20140;-64
2022/07/04 03:50:20;;;;;;;3.47;0.80;;;13.80;99.90;;;13.01;100.00;97916.91;5040523;28;20079;-65
2022/07/04 03:52:46;;;;;;;3.17;0.95;;;13.70;99.90;;;12.99;100.00;97919.56;5037994;28;20104;-65
2022/07/04 03:55:14;;;;;;;2.45;0.80;;;13.60;99.90;;;12.84;100.00;97915.06;5037309;28;20073;-64
2022/07/04 03:57:41;;;;;;;4.10;0.70;;;13.60;99.90;;;12.82;100.00;97914.28;5036757;28;20168;-65
2022/07/04 04:00:09;;;;;;;2.33;0.88;;;13.60;99.90;;;12.76;100.00;97910.22;5037649;28;20107;-64
2022/07/04 04:02:37;;;;;;;1.83;0.70;;;13.50;99.90;;;12.88;100.00;97914.00;5044768;28;20049;-66
2022/07/04 04:05:26;;;;;;;2.55;0.80;;;13.50;99.90;;;12.95;100.00;97905.84;5042402;28;20042;-66
2022/07/04 04:07:58;;;;;;;3.35;0.90;;;13.60;99.90;;;13.01;100.00;97920.34;5039038;28;20049;-66
2022/07/04 04:10:28;;;;;;;2.13;0.75;;;13.60;99.90;;;13.14;100.00;97916.25;5039474;28;20055;-65
2022/07/04 04:12:57;;;;;;;4.38;0.70;;;13.70;99.90;;;13.09;100.00;97925.19;5041563;28;20195;-63
2022/07/04 04:15:24;;;;;;;2.58;0.80;;;13.70;99.90;;;13.05;100.00;97923.66;5040578;28;20146;-65
2022/07/04 04:17:51;;;;;;;4.40;0.80;;;13.70;99.90;;;13.01;100.00;97922.94;5042953;28;20085;-65
2022/07/04 04:20:18;;;;;;;2.97;1.10;;;13.70;99.90;;;13.17;100.00;97926.53;5042137;28;20064;-65
2022/07/04 04:22:45;;;;;;;4.95;1.10;;;13.70;99.90;;;13.14;100.00;97918.84;5039093;28;20188;-66
2022/07/04 04:25:12;;;;;;;1.20;0.77;;;13.80;99.90;;;13.24;100.00;97921.84;5040489;28;20049;-66
2022/07/04 04:27:39;;;;;;;3.33;0.90;;;13.90;99.90;;;13.38;100.00;97924.66;5039042;28;20045;-67
2022/07/04 04:30:07;;;;;;;4.13;0.80;;;14.00;99.90;;;13.47;100.00;97919.94;5038460;28;20041;-67
2022/07/04 04:32:34;;;;;;;4.00;0.98;;;14.10;99.90;;;13.48;100.00;97927.69;5037828;28;20135;-67
2022/07/04 04:35:01;;;;;;;2.85;0.95;;;14.20;99.90;;;13.58;100.00;97915.03;5039454;28;20071;-66
2022/07/04 04:37:28;;;;;;;3.33;0.90;;;14.30;99.90;;;13.75;100.00;97922.03;5039507;28;20164;-65
2022/07/04 04:39:55;;;;;;;2.97;0.90;;;14.40;99.90;;;13.88;100.00;97925.72;5041034;28;20384;-66
2022/07/04 04:42:22;;;;;;;6.10;0.90;;;14.50;99.90;;;14.03;100.00;97926.72;5040324;28;20045;-65
2022/07/04 04:44:49;;;;;;;3.40;0.80;;;14.60;99.90;;;14.07;100.00;97922.16;5037214;28;20075;-65
2022/07/04 04:47:16;;;;;;;5.97;1.13;;;14.80;99.90;;;14.21;100.00;97932.75;5039634;28;20128;-67
2022/07/04 04:49:43;;;;;;;3.50;1.02;;;14.90;99.90;;;14.33;100.00;97936.50;5036041;28;20059;-67
2022/07/04 04:52:11;;;;;;;4.18;0.95;;;15.00;99.90;;;14.38;100.00;97937.09;5039691;28;20060;-67
2022/07/04 04:54:38;;;;;;;7.22;1.00;;;15.10;99.90;;;14.35;100.00;97932.88;5040555;28;20053;-66
2022/07/04 04:57:05;;;;;;;2.85;1.10;;;15.10;99.90;;;14.42;100.00;97934.25;5057598;28;20045;-66
2022/07/04 04:59:34;;;;;;;3.75;1.00;;;15.20;99.90;;;14.68;100.00;97939.88;5039236;28;20145;-66
2022/07/04 05:02:01;;;;;;;2.17;0.80;;;15.30;99.90;;;14.75;100.00;97943.00;5044493;28;20360;-67
2022/07/04 05:04:28;;;;;;;3.47;1.20;;;15.50;99.90;;;14.81;100.00;97946.13;5041428;28;20041;-66
2022/07/04 05:06:56;;;;;;;6.43;1.15;;;15.60;99.90;;;14.91;100.00;97946.47;5044393;28;20607;-67
2022/07/04 05:09:23;;;;;;;2.50;1.08;;;15.60;99.90;;;15.11;100.00;97944.56;5042050;28;20127;-66
2022/07/04 05:11:50;;;;;;;2.80;0.98;;;15.70;99.90;;;15.24;100.00;97951.63;5039520;28;20453;-68
2022/07/04 05:14:17;;;;;;;4.88;1.27;;;15.90;99.90;;;15.44;100.00;97952.28;5039449;28;20059;-66
2022/07/04 05:16:44;;;;;;;3.80;0.93;;;16.10;99.90;;;15.43;100.00;97946.22;5045413;28;20136;-65
2022/07/04 05:19:12;;;;;;;2.92;0.95;;;16.20;99.90;;;15.58;100.00;97948.91;5041188;28;20117;-65
2022/07/04 05:21:39;;;;;;;4.63;1.00;;;16.30;99.90;;;15.71;100.00;97947.28;5041285;28;20612;-66
2022/07/04 05:24:06;;;;;;;5.57;1.25;;;16.40;99.90;;;15.75;100.00;97940.13;5039288;28;20157;-66
2022/07/04 05:26:33;;;;;;;5.18;1.20;;;16.50;99.90;;;15.82;100.00;97950.13;5037517;28;20048;-65
2022/07/04 05:29:00;;;;;;;4.55;1.10;;;16.60;99.90;;;15.89;100.00;97950.63;5040840;28;20156;-66
2022/07/04 05:31:28;;;;;;;4.47;1.08;;;16.60;99.90;;;15.97;100.00;97956.25;5046467;28;20049;-66
2022/07/04 05:33:55;;;;;;;5.35;1.00;;;16.70;99.90;;;16.13;100.00;97950.13;5039993;28;20049;-66
2022/07/04 05:36:24;;;;;;;4.05;1.00;;;16.90;99.90;;;16.22;100.00;97949.59;5041237;28;20139;-64
2022/07/04 05:38:57;;;;;;;5.13;1.40;;;17.00;99.90;;;16.33;100.00;97948.94;5044547;28;20049;-65
2022/07/04 05:41:24;;;;;;;2.90;0.90;;;17.00;99.90;;;16.43;100.00;97963.19;5038548;28;20128;-66
2022/07/04 05:43:51;;;;;;;5.85;1.02;;;17.20;99.90;;;16.48;100.00;97955.88;5040144;28;20080;-66
2022/07/04 05:46:24;;;;;;;4.63;0.88;;;17.20;99.90;;;16.55;100.00;97961.59;5041418;28;20500;-64
2022/07/04 05:48:51;;;;;;;5.85;0.90;;;17.30;99.90;;;16.62;100.00;97958.47;5043696;28;20063;-65
2022/07/04 05:51:19;;;;;;;4.97;1.20;;;17.40;99.90;;;16.70;100.00;97958.03;5039578;28;20572;-67
2022/07/04 05:53:46;;;;;;;4.30;1.20;;;17.50;99.90;;;16.84;100.00;97952.81;5038793;28;20075;-66
2022/07/04 05:56:13;;;;;;;5.60;1.02;;;17.60;99.90;;;16.82;100.00;97949.44;5034735;28;20041;-67
2022/07/04 05:58:40;;;;;;;4.32;1.17;;;17.60;99.90;;;16.98;100.00;97944.06;5041562;28;20053;-64
2022/07/04 06:01:08;;;;;;;6.15;1.00;;;;;;;17.09;100.00;97951.28;5037077;28;20130;-65
2022/07/04 06:03:38;;;;;;;5.18;0.90;;;17.80;99.90;;;17.19;100.00;97948.91;5040693;28;20120;-66
2022/07/04 06:06:05;;;;;;;3.80;1.10;;;18.00;99.90;;;17.13;100.00;97945.75;5043756;28;20132;-62
2022/07/04 06:08:33;;;;;;;3.83;1.30;;;18.10;99.90;;;17.26;100.00;97945.78;5038919;28;20080;-66
2022/07/04 06:11:00;;;;;;;3.55;0.98;;;18.20;99.90;;;17.46;100.00;97941.06;5042275;28;20079;-65
2022/07/04 06:13:27;;;;;;;6.20;1.02;;;18.30;99.90;;;17.42;100.00;97942.19;5041914;28;20049;-66
2022/07/04 06:15:55;;;;;;;6.65;1.00;;;18.40;99.90;;;17.51;100.00;97946.84;5039717;28;20419;-63
2022/07/04 06:18:23;;;;;;;3.20;0.90;;;18.50;99.90;;;17.68;100.00;97941.34;5038208;28;20103;-64
2022/07/04 06:20:50;;;;;;;4.65;1.27;;;18.60;99.90;;;17.42;100.00;97944.81;5039669;28;20144;-64
2022/07/04 06:23:17;;;;;;;6.78;1.08;;;18.70;99.90;;;17.56;100.00;97945.63;5039866;28;20072;-66
2022/07/04 06:25:45;;;;;;;5.05;0.98;;;18.80;99.90;;;17.76;100.00;97939.03;5040870;28;20248;-65
2022/07/04 06:28:12;;;;;;;4.75;1.23;;;;;;;17.69;100.00;97944.78;5042420;28;20132;-66
2022/07/04 06:30:59;;;;;;;3.70;0.90;;;18.90;99.90;;;17.92;100.00;97949.38;5037878;28;20065;-67
2022/07/04 06:33:26;;;;;;;5.60;1.00;;;19.00;99.90;;;17.90;100.00;97945.19;5036298;28;20148;-67
2022/07/04 06:35:56;;;;;;;4.18;1.33;;;19.00;99.90;;;17.87;100.00;97943.63;5039366;28;20134;-66
2022/07/04 06:38:26;;;;;;;6.38;1.38;;;19.00;99.90;;;17.95;100.00;97943.13;5042860;28;20718;-67
2022/07/04 06:40:57;;;;;;;4.30;1.20;;;18.90;99.90;;;17.98;100.00;97943.75;5037450;28;20052;-66
2022/07/04 06:43:25;;;;;;;3.83;1.13;;;18.90;99.90;;;17.95;100.00;97940.50;5040037;28;20132;-65
2022/07/04 06:45:53;;;;;;;4.75;1.00;;;18.90;99.90;;;17.99;100.00;97939.31;5042589;28;20678;-66
2022/07/04 06:48:21;;;;;;;3.65;0.80;;;18.90;99.90;;;18.19;100.00;97932.72;5042410;28;20098;-65
2022/07/04 06:50:48;;;;;;;8.13;1.70;;;19.00;99.90;;;18.11;100.00;97930.63;5039329;28;20085;-66
2022/07/04 06:53:14;;;;;;;4.15;1.10;;;19.00;99.90;;;18.32;100.00;97933.59;5037071;28;20084;-66
2022/07/04 06:55:42;;;;;;;4.05;1.00;;;19.20;99.90;;;18.08;100.00;97946.59;5040406;28;20471;-66
2022/07/04 06:58:12;;;;;;;2.85;1.13;;;19.30;99.90;;;18.25;100.00;97937.56;5041441;28;20059;-65
2022/07/04 07:00:41;;;;;;;3.90;1.10;;;19.50;99.90;;;18.60;100.00;97934.31;5039650;28;20082;-66
2022/07/04 07:03:08;;;;;;;5.55;1.00;;;19.60;99.90;;;18.46;100.00;97929.16;5040313;28;20111;-67
2022/07/04 07:05:36;;;;;;;7.32;0.93;;;19.70;99.90;;;18.39;100.00;97932.22;5040110;28;20526;-65
2022/07/04 07:08:23;;;;;;;4.63;1.02;;;19.80;99.90;;;18.42;100.00;97925.91;5039309;28;20048;-66
2022/07/04 07:10:51;;;;;;;4.53;1.20;;;19.70;99.90;;;18.50;100.00;97928.03;5039238;28;20092;-66
2022/07/04 07:13:17;;;;;;;4.45;1.00;;;19.80;99.90;;;18.86;100.00;97924.63;5041957;28;20088;-65
2022/07/04 07:15:45;;;;;;;4.57;0.82;;;19.90;99.90;;;18.91;100.00;97933.03;5039990;28;20059;-64
2022/07/04 07:18:12;;;;;;;4.65;0.95;;;19.80;99.90;;;18.93;100.00;97930.28;5038699;28;20437;-66
2022/07/04 07:20:39;;;;;;;4.57;0.80;;;20.00;99.90;;;18.71;100.00;97925.66;5036667;28;20047;-66
2022/07/04 07:23:06;;;;;;;3.33;0.75;;;20.00;99.90;;;18.69;100.00;97923.13;5038754;28;20127;-66
2022/07/04 07:25:33;;;;;;;6.75;1.00;;;19.80;99.90;;;18.85;100.00;97917.66;5038851;28;20137;-66
2022/07/04 07:28:00;;;;;;;4.00;0.82;;;19.80;99.90;;;18.77;100.00;97922.63;5039696;28;21536;-66
2022/07/04 07:30:27;;;;;;;4.38;0.80;;;19.90;99.90;;;18.75;100.00;97929.78;5036084;28;20591;-65
2022/07/04 07:32:54;;;;;;;4.90;0.93;;;20.10;99.90;;;18.92;100.00;97923.34;5040322;28;20983;-66
2022/07/04 07:35:21;;;;;;;2.60;0.65;;;20.10;99.90;;;19.30;100.00;97917.13;5038972;28;20052;-65
2022/07/04 07:37:49;;;;;;;3.97;0.73;;;20.30;99.90;;;19.56;100.00;97913.41;5036735;28;20755;-65
2022/07/04 07:40:16;;;;;;;3.75;0.70;;;20.50;99.90;;;19.53;100.00;97918.91;5039513;28;20131;-65
2022/07/04 07:42:43;;;;;;;2.47;0.85;;;20.70;99.90;;;19.22;100.00;97923.75;5039742;28;20465;-63
2022/07/04 07:45:10;;;;;;;3.30;0.70;;;20.70;99.90;;;19.59;100.00;97921.09;5039279;28;20063;-66
2022/07/04 07:47:37;;;;;;;5.00;0.70;;;20.70;99.90;;;19.72;100.00;97922.84;5037959;28;20040;-67
2022/07/04 07:50:05;;;;;;;4.10;1.00;;;20.80;99.90;;;19.78;100.00;97923.22;5039522;28;20135;-65
2022/07/04 07:52:33;;;;;;;2.72;0.70;;;20.70;99.90;;;19.83;100.00;97926.34;5039963;28;20152;-65
2022/07/04 07:55:00;;;;;;;3.63;0.80;;;20.70;99.90;;;19.73;100.00;97921.88;5036229;28;20509;-67
2022/07/04 07:57:29;;;;;;;3.78;0.60;;;20.70;99.90;;;20.28;100.00;97920.34;5035282;28;20401;-66
2022/07/04 07:59:56;;;;;;;6.50;0.70;;;21.00;99.90;;;20.29;100.00;97929.94;5038277;28;20160;-67
2022/07/04 08:04:33;;;;;;;3.25;0.60;;;21.10;99.90;;;20.45;100.00;97926.94;5038911;28;20802;-67
2022/07/04 08:05:12;;;;;;;3.08;0.80;;;21.30;99.90;;;20.29;100.00;97927.28;5038473;28;20138;-66
2022/07/04 08:07:39;;;;;;;3.33;0.70;;;21.30;99.90;;;20.52;100.00;97927.31;5036244;28;20141;-66
2022/07/04 08:10:08;;;;;;;5.22;0.93;;;21.40;99.90;;;20.55;100.00;97927.94;5035775;28;20077;-67
2022/07/04 08:12:35;;;;;;;3.53;0.60;;;;;;;20.84;100.00;97925.66;5040799;28;20061;-67
2022/07/04 08:15:03;;;;;;;2.20;0.52;;;21.70;99.90;;;20.61;100.00;97927.47;5035803;28;20076;-67
2022/07/04 08:17:35;;;;;;;4.95;0.90;;;21.70;99.90;;;20.61;100.00;97930.09;5040180;28;20053;-66
2022/07/04 08:20:03;;;;;;;3.13;0.75;;;21.80;99.90;;;20.86;100.00;97922.91;5037112;28;20526;-67
2022/07/04 08:22:30;;;;;;;2.72;0.55;;;21.80;99.90;;;21.40;100.00;97926.53;5037938;28;20077;-66
2022/07/04 08:24:57;;;;;;;6.97;0.60;;;22.00;99.90;;;21.57;100.00;97925.19;5038122;28;20510;-67
2022/07/04 08:27:25;;;;;;;2.65;0.60;;;22.20;99.90;;;21.59;100.00;97921.44;5040521;28;20133;-66
2022/07/04 08:29:59;;;;;;;2.97;0.70;;;22.40;99.90;;;21.51;100.00;97923.91;5040399;28;20494;-67
2022/07/04 08:32:27;;;;;;;2.67;0.50;;;22.40;99.90;;;21.82;100.00;97919.53;5038932;28;20041;-68
2022/07/04 08:34:57;;;;;;;2.45;0.50;;;22.50;99.90;;;21.93;100.00;97922.13;5039275;28;20053;-67
2022/07/04 08:37:24;;;;;;;4.47;0.60;;;22.50;99.90;;;22.07;100.00;97918.31;5042904;28;20139;-67
2022/07/04 08:39:51;;;;;;;1.90;0.50;;;22.70;99.90;;;22.51;100.00;97916.41;5041682;28;20058;-67
2022/07/04 08:42:20;;;;;;;4.70;0.50;;;23.10;99.90;;;22.38;100.00;97917.59;5041424;28;20068;-66
2022/07/04 08:44:54;;;;;;;3.00;0.50;;;23.30;99.90;;;22.24;100.00;97911.66;5044871;28;20632;-65
2022/07/04 08:47:24;;;;;;;2.20;0.60;;;23.30;99.90;;;22.43;100.00;97920.66;5044705;28;20043;-67
2022/07/04 08:49:59;;;;;;;3.88;0.60;;;23.50;99.90;;;22.10;100.00;97918.09;5042183;28;20529;-65
2022/07/04 08:52:41;;;;;;;3.00;0.50;;;23.40;99.90;;;22.59;100.00;97918.38;5037256;28;20136;-65
2022/07/04 09:00:44;;;;;;;3.13;0.43;;;23.60;99.90;;;22.79;100.00;97900.78;5037054;28;20049;-66
2022/07/04 09:03:11;;;;;;;3.33;0.50;;;23.60;99.90;;;22.43;100.00;97902.97;5039791;28;20215;-68
2022/07/04 09:05:39;;;;;;;4.10;0.60;;;23.40;99.90;;;22.28;100.00;97904.28;5040964;28;20048;-66
2022/07/04 09:08:06;;;;;;;4.78;0.70;;;23.30;99.90;;;22.60;100.00;97896.22;5044582;28;20056;-65
2022/07/04 09:10:33;;;;;;;1.85;0.65;;;23.50;99.70;;;21.86;100.00;97897.19;5042735;28;20119;-67
2022/07/04 09:13:08;;;;;;;2.70;0.50;;;23.40;98.80;;;21.73;100.00;97899.16;5042608;28;20161;-67
2022/07/04 09:15:43;;;;;;;2.20;0.40;;;23.40;98.60;;;22.78;100.00;97885.84;5042469;28;20045;-67
2022/07/04 09:18:25;;;;;;;1.10;0.40;;;23.30;99.10;;;22.81;100.00;97885.59;5044464;28;20050;-67
2022/07/04 09:20:56;;;;;;;1.65;0.40;;;23.50;99.90;;;23.13;100.00;97890.72;5042988;28;20139;-65
2022/07/04 09:23:27;;;;;;;3.63;0.30;;;23.80;98.60;;;24.25;100.00;97876.19;5042714;28;20246;-68
2022/07/04 09:26:18;;;;;;;5.43;0.50;;;24.10;98.90;;;24.97;100.00;97877.28;5044540;28;20128;-65
2022/07/04 09:28:57;;;;;;;3.40;0.43;;;24.80;97.50;;;25.67;100.00;97878.34;5043096;28;20053;-66
2022/07/04 09:31:31;;;;;;;2.55;0.50;;;25.50;97.10;;;25.46;100.00;97875.16;5038646;28;20048;-67
2022/07/04 09:34:04;;;;;;;1.83;0.50;;;25.70;95.30;;;24.69;100.00;97876.47;5040175;28;20045;-65
2022/07/04 09:36:40;;;;;;;2.92;0.40;;;26.00;95.40;;;25.07;100.00;97867.44;5041915;28;20073;-65
2022/07/04 09:39:21;;;;;;;3.78;0.80;;;25.80;95.80;;;25.87;100.00;97867.56;5043573;28;20069;-65
2022/07/04 09:41:58;;;;;;;10.32;0.50;;;26.00;94.70;;;26.24;100.00;97853.16;5039213;28;20531;-68
2022/07/04 09:44:48;;;;;;;3.22;0.40;;;26.20;93.60;;;26.99;100.00;97860.50;5039863;28;20136;-65
2022/07/04 09:47:27;;;;;;;1.60;0.40;;;26.60;93.40;;;27.42;100.00;97854.13;5038694;28;20134;-66
2022/07/04 09:50:20;;;;;;;1.52;0.40;;;26.80;93.30;;;27.14;100.00;97856.19;5037189;28;20144;-66
2022/07/04 09:52:53;;;;;;;1.10;0.30;;;26.90;92.30;;;28.06;100.00;97848.97;5032319;28;20459;-66
2022/07/04 09:55:37;;;;;;;2.22;0.35;;;27.20;93.10;;;27.28;100.00;97852.94;5039993;28;20089;-65
2022/07/04 09:58:07;;;;;;;1.48;0.30;;;27.20;91.80;;;28.01;100.00;97853.97;5039211;28;20124;-66
2022/07/04 10:00:39;;;;;;;2.22;0.40;;;27.60;92.00;;;27.83;100.00;97854.13;5039082;28;20076;-66
2022/07/04 10:03:32;;;;;;;1.92;0.40;;;27.60;92.10;;;26.85;100.00;97864.63;5038128;28;20072;-66
2022/07/04 10:06:18;;;;;;;2.55;0.38;;;27.20;90.90;;;27.25;100.00;97868.41;5042591;28;20053;-66
2022/07/04 10:08:45;;;;;;;3.20;0.30;;;27.30;91.30;;;27.87;100.00;97868.84;5039869;28;20124;-66
2022/07/04 10:11:12;;;;;;;1.30;0.35;;;27.20;90.90;;;27.23;100.00;97865.09;5038617;28;20125;-64
2022/07/04 10:13:46;;;;;;;2.10;0.30;;;27.30;90.30;;;25.67;100.00;97883.66;5040389;28;20098;-66
2022/07/04 10:16:16;;;;;;;2.08;0.35;;;27.00;89.50;;;26.86;100.00;97869.78;5038547;28;20148;-66
2022/07/04 10:18:44;;;;;;;2.00;0.40;;;26.80;87.90;;;27.91;100.00;97870.16;5037178;28;20045;-67
2022/07/04 10:21:12;;;;;;;2.97;0.47;;;27.20;88.10;;;27.80;100.00;97866.97;5039788;28;20053;-66
2022/07/04 10:23:40;;;;;;;1.13;0.28;;;27.30;89.70;;;29.46;100.00;97875.13;5039212;28;20053;-66
2022/07/04 10:26:07;;;;;;;1.60;0.43;;;27.90;89.80;;;29.35;100.00;97866.50;5038077;28;20053;-67
2022/07/04 10:28:37;;;;;;;3.45;0.30;;;28.30;89.50;;;27.98;99.70;97880.16;5038590;28;20077;-66
2022/07/04 10:31:05;;;;;;;2.53;0.30;;;28.40;86.20;;;27.17;100.00;97876.38;5038006;28;20135;-65